sensor_id;sensor_type;location;lat;lon;timestamp;temperature;humidity
21306;DHT22;10812;51.838;5.838;2023-05-10T00:00:34;13.20;99.90
21306;DHT22;10812;51.838;5.838;2023-05-10T00:03:02;13.10;99.90
21306;DHT22;10812;51.838;5.838;2023-05-10T00:05:33;13.20;99.90
21306;DHT22;10812;51.838;5.838;2023-05-10T00:08:01;13.30;99.90
21306;DHT22;10812;51.838;5.838;2023-05-10T00:10:29;13.20;99.90
21306;DHT22;10812;51.838;5.838;2023-05-10T00:12:57;13.20;99.90
21306;DHT22;10812;51.838;5.838;2023-05-10T00:15:25;13.20;99.90
21306;DHT22;10812;51.838;5.838;2023-05-10T00:17:54;13.20;99.90
21306;DHT22;10812;51.838;5.838;2023-05-10T00:20:22;13.20;99.90
21306;DHT22;10812;51.838;5.838;2023-05-10T00:22:52;13.20;99.90
21306;DHT22;10812;51.838;5.838;2023-05-10T00:25:20;13.20;99.90
21306;DHT22;10812;51.838;5.838;2023-05-10T00:27:48;13.20;99.90
21306;DHT22;10812;51.838;5.838;2023-05-10T00:30:17;13.10;99.90
21306;DHT22;10812;51.838;5.838;2023-05-10T00:32:45;13.10;99.90
21306;DHT22;10812;51.838;5.838;2023-05-10T00:35:15;13.10;99.90
21306;DHT22;10812;51.838;5.838;2023-05-10T00:37:43;13.10;99.90
21306;DHT22;10812;51.838;5.838;2023-05-10T00:40:13;13.20;99.90
21306;DHT22;10812;51.838;5.838;2023-05-10T00:42:42;13.10;99.90
21306;DHT22;10812;51.838;5.838;2023-05-10T00:45:10;13.20;99.90
21306;DHT22;10812;51.838;5.838;2023-05-10T00:47:39;13.20;99.90
21306;DHT22;10812;51.838;5.838;2023-05-10T00:50:08;13.30;99.90
21306;DHT22;10812;51.838;5.838;2023-05-10T00:52:36;13.30;99.90
21306;DHT22;10812;51.838;5.838;2023-05-10T00:55:06;13.30;99.90
21306;DHT22;10812;51.838;5.838;2023-05-10T00:57:36;13.30;99.90
21306;DHT22;10812;51.838;5.838;2023-05-10T01:00:05;13.30;99.90
21306;DHT22;10812;51.838;5.838;2023-05-10T01:02:34;13.30;99.90
21306;DHT22;10812;51.838;5.838;2023-05-10T01:05:04;13.30;99.90
21306;DHT22;10812;51.838;5.838;2023-05-10T01:07:32;13.30;99.90
21306;DHT22;10812;51.838;5.838;2023-05-10T01:10:00;13.40;99.90
21306;DHT22;10812;51.838;5.838;2023-05-10T01:12:28;13.30;99.90
21306;DHT22;10812;51.838;5.838;2023-05-10T01:14:58;13.30;99.90
21306;DHT22;10812;51.838;5.838;2023-05-10T01:17:28;13.30;99.90
21306;DHT22;10812;51.838;5.838;2023-05-10T01:19:57;13.30;99.90
21306;DHT22;10812;51.838;5.838;2023-05-10T01:25:44;13.30;99.90
21306;DHT22;10812;51.838;5.838;2023-05-10T01:28:49;13.30;99.90
21306;DHT22;10812;51.838;5.838;2023-05-10T01:31:50;13.30;99.90
21306;DHT22;10812;51.838;5.838;2023-05-10T01:34:22;13.30;99.90
21306;DHT22;10812;51.838;5.838;2023-05-10T01:36:55;13.30;99.90
21306;DHT22;10812;51.838;5.838;2023-05-10T01:39:39;13.30;99.90
21306;DHT22;10812;51.838;5.838;2023-05-10T01:42:11;13.30;99.90
21306;DHT22;10812;51.838;5.838;2023-05-10T01:44:45;13.30;99.90
21306;DHT22;10812;51.838;5.838;2023-05-10T01:47:20;13.40;99.90
21306;DHT22;10812;51.838;5.838;2023-05-10T01:49:53;13.30;99.90
21306;DHT22;10812;51.838;5.838;2023-05-10T01:52:26;13.30;99.90
21306;DHT22;10812;51.838;5.838;2023-05-10T01:55:01;13.30;99.90
21306;DHT22;10812;51.838;5.838;2023-05-10T01:57:34;13.30;99.90
21306;DHT22;10812;51.838;5.838;2023-05-10T02:00:04;13.20;99.90
21306;DHT22;10812;51.838;5.838;2023-05-10T02:02:37;13.30;99.90
21306;DHT22;10812;51.838;5.838;2023-05-10T02:05:07;13.30;99.90
21306;DHT22;10812;51.838;5.838;2023-05-10T02:07:36;13.20;99.90
21306;DHT22;10812;51.838;5.838;2023-05-10T02:10:06;13.20;99.90
21306;DHT22;10812;51.838;5.838;2023-05-10T02:12:36;13.20;99.90
21306;DHT22;10812;51.838;5.838;2023-05-10T02:15:07;13.20;99.90
21306;DHT22;10812;51.838;5.838;2023-05-10T02:17:38;13.20;99.90
21306;DHT22;10812;51.838;5.838;2023-05-10T02:20:08;13.20;99.90
21306;DHT22;10812;51.838;5.838;2023-05-10T02:22:39;13.20;99.90
21306;DHT22;10812;51.838;5.838;2023-05-10T02:25:08;13.20;99.90
21306;DHT22;10812;51.838;5.838;2023-05-10T02:27:38;13.20;99.90
21306;DHT22;10812;51.838;5.838;2023-05-10T02:30:07;13.10;99.90
21306;DHT22;10812;51.838;5.838;2023-05-10T02:32:38;13.20;99.90
21306;DHT22;10812;51.838;5.838;2023-05-10T02:35:08;13.10;99.90
21306;DHT22;10812;51.838;5.838;2023-05-10T02:37:38;13.10;99.90
21306;DHT22;10812;51.838;5.838;2023-05-10T02:40:07;13.00;99.90
21306;DHT22;10812;51.838;5.838;2023-05-10T02:42:38;13.00;99.90
21306;DHT22;10812;51.838;5.838;2023-05-10T02:45:12;12.90;99.90
21306;DHT22;10812;51.838;5.838;2023-05-10T02:47:42;12.90;99.90
21306;DHT22;10812;51.838;5.838;2023-05-10T02:50:11;13.00;99.90
21306;DHT22;10812;51.838;5.838;2023-05-10T02:52:41;13.00;99.90
21306;DHT22;10812;51.838;5.838;2023-05-10T02:55:14;13.00;99.90
21306;DHT22;10812;51.838;5.838;2023-05-10T02:57:48;12.90;99.90
21306;DHT22;10812;51.838;5.838;2023-05-10T03:08:22;12.80;99.90
21306;DHT22;10812;51.838;5.838;2023-05-10T03:10:59;12.80;99.90
21306;DHT22;10812;51.838;5.838;2023-05-10T03:13:32;12.80;99.90
21306;DHT22;10812;51.838;5.838;2023-05-10T03:16:07;12.80;99.90
21306;DHT22;10812;51.838;5.838;2023-05-10T03:18:43;12.80;99.90
21306;DHT22;10812;51.838;5.838;2023-05-10T03:21:12;12.80;99.90
21306;DHT22;10812;51.838;5.838;2023-05-10T03:23:46;12.80;99.90
21306;DHT22;10812;51.838;5.838;2023-05-10T03:26:20;12.80;99.90
21306;DHT22;10812;51.838;5.838;2023-05-10T03:28:52;12.80;99.90
21306;DHT22;10812;51.838;5.838;2023-05-10T03:31:21;12.80;99.90
21306;DHT22;10812;51.838;5.838;2023-05-10T03:33:50;12.70;99.90
21306;DHT22;10812;51.838;5.838;2023-05-10T03:36:19;12.80;99.90
21306;DHT22;10812;51.838;5.838;2023-05-10T03:38:48;12.80;99.90
21306;DHT22;10812;51.838;5.838;2023-05-10T03:41:16;12.80;99.90
21306;DHT22;10812;51.838;5.838;2023-05-10T03:43:44;12.80;99.90
21306;DHT22;10812;51.838;5.838;2023-05-10T03:46:12;12.80;99.90
21306;DHT22;10812;51.838;5.838;2023-05-10T03:48:40;12.80;99.90
21306;DHT22;10812;51.838;5.838;2023-05-10T03:51:09;12.80;99.90
21306;DHT22;10812;51.838;5.838;2023-05-10T03:53:37;12.80;99.90
21306;DHT22;10812;51.838;5.838;2023-05-10T03:56:06;12.80;99.90
21306;DHT22;10812;51.838;5.838;2023-05-10T03:58:34;12.80;99.90
21306;DHT22;10812;51.838;5.838;2023-05-10T04:01:02;12.80;99.90
21306;DHT22;10812;51.838;5.838;2023-05-10T04:03:30;12.80;99.90
21306;DHT22;10812;51.838;5.838;2023-05-10T04:05:59;12.80;99.90
21306;DHT22;10812;51.838;5.838;2023-05-10T04:08:28;12.90;99.90
21306;DHT22;10812;51.838;5.838;2023-05-10T04:11:06;12.90;99.90
21306;DHT22;10812;51.838;5.838;2023-05-10T04:13:35;12.90;99.90
21306;DHT22;10812;51.838;5.838;2023-05-10T04:16:04;12.90;99.90
21306;DHT22;10812;51.838;5.838;2023-05-10T04:18:32;12.90;99.90
21306;DHT22;10812;51.838;5.838;2023-05-10T04:21:00;12.90;99.90
21306;DHT22;10812;51.838;5.838;2023-05-10T04:23:28;12.90;99.90
21306;DHT22;10812;51.838;5.838;2023-05-10T04:26:00;13.00;99.90
21306;DHT22;10812;51.838;5.838;2023-05-10T04:28:29;13.00;99.90
21306;DHT22;10812;51.838;5.838;2023-05-10T04:31:01;12.90;99.90
21306;DHT22;10812;51.838;5.838;2023-05-10T04:33:30;13.00;99.90
21306;DHT22;10812;51.838;5.838;2023-05-10T04:35:58;13.00;99.90
21306;DHT22;10812;51.838;5.838;2023-05-10T04:38:26;13.00;99.90
21306;DHT22;10812;51.838;5.838;2023-05-10T04:40:54;12.90;99.90
21306;DHT22;10812;51.838;5.838;2023-05-10T04:43:32;12.90;99.90
21306;DHT22;10812;51.838;5.838;2023-05-10T04:46:00;12.90;99.90
21306;DHT22;10812;51.838;5.838;2023-05-10T04:48:29;12.90;99.90
21306;DHT22;10812;51.838;5.838;2023-05-10T04:50:57;12.90;99.90
21306;DHT22;10812;51.838;5.838;2023-05-10T04:53:25;13.00;99.90
21306;DHT22;10812;51.838;5.838;2023-05-10T04:55:53;13.00;99.90
21306;DHT22;10812;51.838;5.838;2023-05-10T04:58:21;13.00;99.90
21306;DHT22;10812;51.838;5.838;2023-05-10T05:00:50;12.90;99.90
21306;DHT22;10812;51.838;5.838;2023-05-10T05:03:18;12.90;99.90
21306;DHT22;10812;51.838;5.838;2023-05-10T05:05:47;13.00;99.90
21306;DHT22;10812;51.838;5.838;2023-05-10T05:08:15;13.00;99.90
21306;DHT22;10812;51.838;5.838;2023-05-10T05:10:43;13.00;99.90
21306;DHT22;10812;51.838;5.838;2023-05-10T05:13:12;13.10;99.90
21306;DHT22;10812;51.838;5.838;2023-05-10T05:15:40;13.10;99.90
21306;DHT22;10812;51.838;5.838;2023-05-10T05:18:10;13.10;99.90
21306;DHT22;10812;51.838;5.838;2023-05-10T05:20:38;13.10;99.90
21306;DHT22;10812;51.838;5.838;2023-05-10T05:23:06;13.10;99.90
21306;DHT22;10812;51.838;5.838;2023-05-10T05:25:34;13.10;99.90
21306;DHT22;10812;51.838;5.838;2023-05-10T05:28:03;13.20;99.90
21306;DHT22;10812;51.838;5.838;2023-05-10T05:30:31;13.10;99.90
21306;DHT22;10812;51.838;5.838;2023-05-10T05:32:59;13.20;99.90
21306;DHT22;10812;51.838;5.838;2023-05-10T05:35:29;13.20;99.90
21306;DHT22;10812;51.838;5.838;2023-05-10T05:37:57;13.30;99.90
21306;DHT22;10812;51.838;5.838;2023-05-10T05:40:25;13.30;99.90
21306;DHT22;10812;51.838;5.838;2023-05-10T05:42:53;13.50;99.90
21306;DHT22;10812;51.838;5.838;2023-05-10T05:45:22;13.50;99.90
21306;DHT22;10812;51.838;5.838;2023-05-10T05:47:50;13.50;99.90
21306;DHT22;10812;51.838;5.838;2023-05-10T05:50:18;13.50;99.90
21306;DHT22;10812;51.838;5.838;2023-05-10T05:52:47;13.50;99.90
21306;DHT22;10812;51.838;5.838;2023-05-10T06:03:35;13.80;99.90
21306;DHT22;10812;51.838;5.838;2023-05-10T06:06:03;14.00;99.90
21306;DHT22;10812;51.838;5.838;2023-05-10T06:08:33;14.40;99.90
21306;DHT22;10812;51.838;5.838;2023-05-10T06:11:01;14.90;99.90
21306;DHT22;10812;51.838;5.838;2023-05-10T06:13:30;14.90;99.90
21306;DHT22;10812;51.838;5.838;2023-05-10T06:16:02;14.90;99.90
21306;DHT22;10812;51.838;5.838;2023-05-10T06:18:30;14.90;99.90
21306;DHT22;10812;51.838;5.838;2023-05-10T06:20:58;15.00;99.90
21306;DHT22;10812;51.838;5.838;2023-05-10T06:23:27;15.10;99.90
21306;DHT22;10812;51.838;5.838;2023-05-10T06:25:56;15.20;99.90
21306;DHT22;10812;51.838;5.838;2023-05-10T06:28:24;15.20;99.90
21306;DHT22;10812;51.838;5.838;2023-05-10T06:30:53;15.00;99.90
21306;DHT22;10812;51.838;5.838;2023-05-10T06:33:21;14.50;99.90
21306;DHT22;10812;51.838;5.838;2023-05-10T06:35:49;14.40;99.90
21306;DHT22;10812;51.838;5.838;2023-05-10T06:38:17;14.30;99.90
21306;DHT22;10812;51.838;5.838;2023-05-10T06:40:45;14.20;99.90
21306;DHT22;10812;51.838;5.838;2023-05-10T06:43:14;14.10;99.90
21306;DHT22;10812;51.838;5.838;2023-05-10T06:45:43;14.00;99.90
21306;DHT22;10812;51.838;5.838;2023-05-10T06:48:11;13.90;99.90
21306;DHT22;10812;51.838;5.838;2023-05-10T06:50:39;13.90;99.90
21306;DHT22;10812;51.838;5.838;2023-05-10T06:53:07;13.90;99.90
21306;DHT22;10812;51.838;5.838;2023-05-10T07:07:09;13.70;99.90
21306;DHT22;10812;51.838;5.838;2023-05-10T07:09:38;13.70;99.90
21306;DHT22;10812;51.838;5.838;2023-05-10T07:12:06;13.70;99.90
21306;DHT22;10812;51.838;5.838;2023-05-10T07:14:37;13.70;99.90
21306;DHT22;10812;51.838;5.838;2023-05-10T07:17:05;13.60;99.90
21306;DHT22;10812;51.838;5.838;2023-05-10T07:19:34;13.60;99.90
21306;DHT22;10812;51.838;5.838;2023-05-10T07:22:02;13.70;99.90
21306;DHT22;10812;51.838;5.838;2023-05-10T07:24:33;13.70;99.90
21306;DHT22;10812;51.838;5.838;2023-05-10T07:27:01;13.80;99.90
21306;DHT22;10812;51.838;5.838;2023-05-10T07:29:29;13.80;99.90
21306;DHT22;10812;51.838;5.838;2023-05-10T07:31:57;13.80;99.90
21306;DHT22;10812;51.838;5.838;2023-05-10T07:34:25;13.90;99.90
21306;DHT22;10812;51.838;5.838;2023-05-10T07:36:53;13.90;99.90
21306;DHT22;10812;51.838;5.838;2023-05-10T07:39:22;14.00;99.90
21306;DHT22;10812;51.838;5.838;2023-05-10T07:41:55;13.90;99.90
21306;DHT22;10812;51.838;5.838;2023-05-10T07:44:23;14.00;99.90
21306;DHT22;10812;51.838;5.838;2023-05-10T07:46:52;14.10;99.90
21306;DHT22;10812;51.838;5.838;2023-05-10T07:49:20;14.10;99.90
21306;DHT22;10812;51.838;5.838;2023-05-10T07:51:48;14.20;99.90
21306;DHT22;10812;51.838;5.838;2023-05-10T07:54:16;14.40;99.90
21306;DHT22;10812;51.838;5.838;2023-05-10T07:56:45;14.50;99.90
21306;DHT22;10812;51.838;5.838;2023-05-10T07:59:16;14.50;99.90
21306;DHT22;10812;51.838;5.838;2023-05-10T08:01:45;14.60;99.90
21306;DHT22;10812;51.838;5.838;2023-05-10T08:04:13;14.70;99.90
21306;DHT22;10812;51.838;5.838;2023-05-10T08:06:41;14.60;99.90
21306;DHT22;10812;51.838;5.838;2023-05-10T08:09:09;14.80;99.90
21306;DHT22;10812;51.838;5.838;2023-05-10T08:11:37;14.80;99.90
21306;DHT22;10812;51.838;5.838;2023-05-10T08:14:05;15.10;99.90
21306;DHT22;10812;51.838;5.838;2023-05-10T08:16:35;15.30;99.90
21306;DHT22;10812;51.838;5.838;2023-05-10T08:19:03;15.30;99.90
21306;DHT22;10812;51.838;5.838;2023-05-10T08:21:32;15.30;99.90
21306;DHT22;10812;51.838;5.838;2023-05-10T08:24:00;15.30;99.90
21306;DHT22;10812;51.838;5.838;2023-05-10T08:26:28;15.20;99.90
21306;DHT22;10812;51.838;5.838;2023-05-10T08:28:56;15.20;99.90
21306;DHT22;10812;51.838;5.838;2023-05-10T08:31:24;15.30;99.90
21306;DHT22;10812;51.838;5.838;2023-05-10T08:33:54;15.40;99.90
21306;DHT22;10812;51.838;5.838;2023-05-10T08:36:22;15.50;99.90
21306;DHT22;10812;51.838;5.838;2023-05-10T08:38:51;15.70;99.90
21306;DHT22;10812;51.838;5.838;2023-05-10T08:41:20;15.70;99.90
21306;DHT22;10812;51.838;5.838;2023-05-10T08:43:49;15.60;99.90
21306;DHT22;10812;51.838;5.838;2023-05-10T08:46:19;15.50;99.90
21306;DHT22;10812;51.838;5.838;2023-05-10T08:48:50;15.40;99.90
21306;DHT22;10812;51.838;5.838;2023-05-10T08:51:22;15.40;99.90
21306;DHT22;10812;51.838;5.838;2023-05-10T08:53:52;15.30;99.90
21306;DHT22;10812;51.838;5.838;2023-05-10T08:56:20;15.10;99.90
21306;DHT22;10812;51.838;5.838;2023-05-10T08:58:48;15.10;99.90
21306;DHT22;10812;51.838;5.838;2023-05-10T09:01:17;15.00;99.90
21306;DHT22;10812;51.838;5.838;2023-05-10T09:03:46;15.10;99.90
21306;DHT22;10812;51.838;5.838;2023-05-10T09:06:15;15.00;99.90
21306;DHT22;10812;51.838;5.838;2023-05-10T09:08:45;14.80;99.90
21306;DHT22;10812;51.838;5.838;2023-05-10T09:11:14;14.60;99.90
21306;DHT22;10812;51.838;5.838;2023-05-10T09:13:42;14.60;99.90
21306;DHT22;10812;51.838;5.838;2023-05-10T09:16:11;14.70;99.90
21306;DHT22;10812;51.838;5.838;2023-05-10T09:18:48;14.70;99.90
21306;DHT22;10812;51.838;5.838;2023-05-10T09:21:17;14.70;99.90
21306;DHT22;10812;51.838;5.838;2023-05-10T09:23:46;14.60;99.90
21306;DHT22;10812;51.838;5.838;2023-05-10T09:26:17;14.70;99.90
21306;DHT22;10812;51.838;5.838;2023-05-10T09:28:53;14.70;99.90
21306;DHT22;10812;51.838;5.838;2023-05-10T09:31:22;14.70;99.90
21306;DHT22;10812;51.838;5.838;2023-05-10T09:33:52;14.80;99.90
21306;DHT22;10812;51.838;5.838;2023-05-10T09:36:20;14.80;99.90
21306;DHT22;10812;51.838;5.838;2023-05-10T09:38:52;14.80;99.90
21306;DHT22;10812;51.838;5.838;2023-05-10T09:41:22;14.90;99.90
21306;DHT22;10812;51.838;5.838;2023-05-10T09:43:55;14.90;99.90
21306;DHT22;10812;51.838;5.838;2023-05-10T09:46:24;14.90;99.90
21306;DHT22;10812;51.838;5.838;2023-05-10T09:48:52;15.20;99.90
21306;DHT22;10812;51.838;5.838;2023-05-10T09:51:21;15.30;99.90
21306;DHT22;10812;51.838;5.838;2023-05-10T09:57:41;15.70;99.90
21306;DHT22;10812;51.838;5.838;2023-05-10T10:00:10;15.90;99.90
21306;DHT22;10812;51.838;5.838;2023-05-10T10:02:46;15.90;99.90
21306;DHT22;10812;51.838;5.838;2023-05-10T10:05:15;15.70;99.90
21306;DHT22;10812;51.838;5.838;2023-05-10T10:07:44;16.00;99.90
21306;DHT22;10812;51.838;5.838;2023-05-10T10:10:12;16.40;99.90
21306;DHT22;10812;51.838;5.838;2023-05-10T10:12:43;16.80;99.90
21306;DHT22;10812;51.838;5.838;2023-05-10T10:15:11;17.30;99.90
21306;DHT22;10812;51.838;5.838;2023-05-10T10:29:44;16.30;99.90
21306;DHT22;10812;51.838;5.838;2023-05-10T10:32:23;16.10;99.90
21306;DHT22;10812;51.838;5.838;2023-05-10T10:34:54;16.40;99.90
21306;DHT22;10812;51.838;5.838;2023-05-10T10:37:23;17.00;99.90
21306;DHT22;10812;51.838;5.838;2023-05-10T10:39:51;17.90;99.90
21306;DHT22;10812;51.838;5.838;2023-05-10T10:42:43;18.40;99.90
21306;DHT22;10812;51.838;5.838;2023-05-10T10:45:13;18.40;99.90
21306;DHT22;10812;51.838;5.838;2023-05-10T10:47:42;18.30;99.90
21306;DHT22;10812;51.838;5.838;2023-05-10T10:50:11;17.70;99.90
21306;DHT22;10812;51.838;5.838;2023-05-10T10:52:40;17.30;99.90
21306;DHT22;10812;51.838;5.838;2023-05-10T10:55:10;17.60;99.90
21306;DHT22;10812;51.838;5.838;2023-05-10T10:57:44;17.80;99.90
21306;DHT22;10812;51.838;5.838;2023-05-10T11:00:26;18.00;99.90
21306;DHT22;10812;51.838;5.838;2023-05-10T11:09:41;17.90;99.90
21306;DHT22;10812;51.838;5.838;2023-05-10T11:12:09;17.60;99.90
21306;DHT22;10812;51.838;5.838;2023-05-10T11:14:37;17.60;99.90
21306;DHT22;10812;51.838;5.838;2023-05-10T11:17:25;18.10;99.90
21306;DHT22;10812;51.838;5.838;2023-05-10T11:20:06;18.10;99.90
21306;DHT22;10812;51.838;5.838;2023-05-10T11:22:49;18.00;99.90
21306;DHT22;10812;51.838;5.838;2023-05-10T11:25:18;18.10;99.90
21306;DHT22;10812;51.838;5.838;2023-05-10T11:27:48;17.80;99.90
21306;DHT22;10812;51.838;5.838;2023-05-10T11:30:16;17.50;99.90
21306;DHT22;10812;51.838;5.838;2023-05-10T11:32:46;17.50;99.90
21306;DHT22;10812;51.838;5.838;2023-05-10T11:35:15;17.80;99.90
21306;DHT22;10812;51.838;5.838;2023-05-10T11:37:43;17.70;99.90
21306;DHT22;10812;51.838;5.838;2023-05-10T11:40:15;17.80;99.90
21306;DHT22;10812;51.838;5.838;2023-05-10T11:42:44;17.50;99.90
21306;DHT22;10812;51.838;5.838;2023-05-10T11:45:13;17.60;99.90
21306;DHT22;10812;51.838;5.838;2023-05-10T11:47:41;17.60;99.90
21306;DHT22;10812;51.838;5.838;2023-05-10T11:50:12;17.50;99.90
21306;DHT22;10812;51.838;5.838;2023-05-10T11:52:40;17.40;99.90
21306;DHT22;10812;51.838;5.838;2023-05-10T11:55:08;17.50;99.90
21306;DHT22;10812;51.838;5.838;2023-05-10T11:57:37;17.20;99.90
21306;DHT22;10812;51.838;5.838;2023-05-10T12:00:09;17.60;99.90
21306;DHT22;10812;51.838;5.838;2023-05-10T12:02:37;17.80;99.90
21306;DHT22;10812;51.838;5.838;2023-05-10T12:05:07;17.70;99.90
21306;DHT22;10812;51.838;5.838;2023-05-10T12:07:36;18.00;99.90
21306;DHT22;10812;51.838;5.838;2023-05-10T12:10:09;18.40;99.90
21306;DHT22;10812;51.838;5.838;2023-05-10T12:12:39;18.50;99.90
21306;DHT22;10812;51.838;5.838;2023-05-10T12:15:12;18.50;99.90
21306;DHT22;10812;51.838;5.838;2023-05-10T12:17:45;18.50;99.90
21306;DHT22;10812;51.838;5.838;2023-05-10T12:20:14;18.00;99.90
21306;DHT22;10812;51.838;5.838;2023-05-10T12:22:50;18.00;99.90
21306;DHT22;10812;51.838;5.838;2023-05-10T12:25:18;18.10;99.90
21306;DHT22;10812;51.838;5.838;2023-05-10T12:27:51;18.20;99.90
21306;DHT22;10812;51.838;5.838;2023-05-10T12:30:21;18.00;99.90
21306;DHT22;10812;51.838;5.838;2023-05-10T12:32:49;17.90;99.90
21306;DHT22;10812;51.838;5.838;2023-05-10T12:35:18;18.00;99.90
21306;DHT22;10812;51.838;5.838;2023-05-10T12:37:50;18.30;99.90
21306;DHT22;10812;51.838;5.838;2023-05-10T12:40:19;18.40;99.90
21306;DHT22;10812;51.838;5.838;2023-05-10T12:42:47;18.60;99.90
21306;DHT22;10812;51.838;5.838;2023-05-10T12:45:17;18.80;99.90
21306;DHT22;10812;51.838;5.838;2023-05-10T12:47:46;18.60;99.90
21306;DHT22;10812;51.838;5.838;2023-05-10T12:50:14;18.50;99.90
21306;DHT22;10812;51.838;5.838;2023-05-10T12:59:58;17.20;99.90
21306;DHT22;10812;51.838;5.838;2023-05-10T13:02:26;16.90;99.90
21306;DHT22;10812;51.838;5.838;2023-05-10T13:04:54;16.80;99.90
21306;DHT22;10812;51.838;5.838;2023-05-10T13:07:22;16.60;99.90
21306;DHT22;10812;51.838;5.838;2023-05-10T13:09:50;16.40;99.90
21306;DHT22;10812;51.838;5.838;2023-05-10T13:12:18;16.30;99.90
21306;DHT22;10812;51.838;5.838;2023-05-10T13:14:46;16.10;99.90
21306;DHT22;10812;51.838;5.838;2023-05-10T13:17:16;16.10;99.90
21306;DHT22;10812;51.838;5.838;2023-05-10T13:19:44;16.10;99.90
21306;DHT22;10812;51.838;5.838;2023-05-10T13:22:12;16.10;99.90
21306;DHT22;10812;51.838;5.838;2023-05-10T13:24:46;16.00;99.90
21306;DHT22;10812;51.838;5.838;2023-05-10T13:27:14;16.00;99.90
21306;DHT22;10812;51.838;5.838;2023-05-10T13:29:42;16.10;99.90
21306;DHT22;10812;51.838;5.838;2023-05-10T13:32:12;16.10;99.90
21306;DHT22;10812;51.838;5.838;2023-05-10T13:34:41;16.10;99.90
21306;DHT22;10812;51.838;5.838;2023-05-10T13:37:09;16.30;99.90
21306;DHT22;10812;51.838;5.838;2023-05-10T13:39:37;16.40;99.90
21306;DHT22;10812;51.838;5.838;2023-05-10T13:42:06;16.40;99.90
21306;DHT22;10812;51.838;5.838;2023-05-10T13:44:34;16.40;99.90
21306;DHT22;10812;51.838;5.838;2023-05-10T13:47:02;16.40;99.90
21306;DHT22;10812;51.838;5.838;2023-05-10T13:49:30;16.40;99.90
21306;DHT22;10812;51.838;5.838;2023-05-10T13:52:00;16.50;99.90
21306;DHT22;10812;51.838;5.838;2023-05-10T13:54:32;16.60;99.90
21306;DHT22;10812;51.838;5.838;2023-05-10T13:57:01;16.70;99.90
21306;DHT22;10812;51.838;5.838;2023-05-10T13:59:29;16.70;99.90
21306;DHT22;10812;51.838;5.838;2023-05-10T14:01:58;16.80;99.90
21306;DHT22;10812;51.838;5.838;2023-05-10T14:04:26;16.90;99.90
21306;DHT22;10812;51.838;5.838;2023-05-10T14:06:54;16.90;99.90
21306;DHT22;10812;51.838;5.838;2023-05-10T14:09:24;16.70;99.90
21306;DHT22;10812;51.838;5.838;2023-05-10T14:11:52;16.60;99.90
21306;DHT22;10812;51.838;5.838;2023-05-10T14:14:20;16.40;99.90
21306;DHT22;10812;51.838;5.838;2023-05-10T14:16:48;16.50;99.90
21306;DHT22;10812;51.838;5.838;2023-05-10T14:19:16;16.60;99.90
21306;DHT22;10812;51.838;5.838;2023-05-10T14:21:44;16.70;99.90
21306;DHT22;10812;51.838;5.838;2023-05-10T14:24:12;16.70;99.90
21306;DHT22;10812;51.838;5.838;2023-05-10T14:26:42;16.70;99.90
21306;DHT22;10812;51.838;5.838;2023-05-10T14:29:10;16.60;99.90
21306;DHT22;10812;51.838;5.838;2023-05-10T14:31:38;16.40;99.90
21306;DHT22;10812;51.838;5.838;2023-05-10T14:34:06;16.40;99.90
21306;DHT22;10812;51.838;5.838;2023-05-10T14:36:34;16.40;99.90
21306;DHT22;10812;51.838;5.838;2023-05-10T14:39:03;16.50;99.90
21306;DHT22;10812;51.838;5.838;2023-05-10T14:41:31;16.60;99.90
21306;DHT22;10812;51.838;5.838;2023-05-10T14:44:01;16.70;99.90
21306;DHT22;10812;51.838;5.838;2023-05-10T14:46:30;16.60;99.90
21306;DHT22;10812;51.838;5.838;2023-05-10T14:48:58;16.80;99.90
21306;DHT22;10812;51.838;5.838;2023-05-10T14:51:26;16.80;99.90
21306;DHT22;10812;51.838;5.838;2023-05-10T14:53:54;17.30;99.90
21306;DHT22;10812;51.838;5.838;2023-05-10T14:56:23;17.70;99.90
21306;DHT22;10812;51.838;5.838;2023-05-10T14:58:52;17.80;99.90
21306;DHT22;10812;51.838;5.838;2023-05-10T15:01:22;17.70;99.90
21306;DHT22;10812;51.838;5.838;2023-05-10T15:03:51;17.40;99.90
21306;DHT22;10812;51.838;5.838;2023-05-10T15:06:23;17.10;99.90
21306;DHT22;10812;51.838;5.838;2023-05-10T15:08:52;16.60;99.90
21306;DHT22;10812;51.838;5.838;2023-05-10T15:11:20;16.50;99.90
21306;DHT22;10812;51.838;5.838;2023-05-10T15:13:48;16.50;99.90
21306;DHT22;10812;51.838;5.838;2023-05-10T15:16:16;16.40;99.90
21306;DHT22;10812;51.838;5.838;2023-05-10T15:18:46;16.40;99.90
21306;DHT22;10812;51.838;5.838;2023-05-10T15:21:15;16.50;99.90
21306;DHT22;10812;51.838;5.838;2023-05-10T15:23:43;16.80;99.90
21306;DHT22;10812;51.838;5.838;2023-05-10T15:41:36;17.30;99.90
21306;DHT22;10812;51.838;5.838;2023-05-10T15:44:04;17.10;99.90
21306;DHT22;10812;51.838;5.838;2023-05-10T15:46:32;17.10;99.90
21306;DHT22;10812;51.838;5.838;2023-05-10T15:49:01;17.10;99.90
21306;DHT22;10812;51.838;5.838;2023-05-10T15:51:29;17.20;99.90
21306;DHT22;10812;51.838;5.838;2023-05-10T15:53:57;17.10;99.90
21306;DHT22;10812;51.838;5.838;2023-05-10T15:56:33;17.00;99.90
21306;DHT22;10812;51.838;5.838;2023-05-10T15:59:03;17.20;99.90
21306;DHT22;10812;51.838;5.838;2023-05-10T16:01:34;17.20;99.90
21306;DHT22;10812;51.838;5.838;2023-05-10T16:04:02;16.90;99.90
21306;DHT22;10812;51.838;5.838;2023-05-10T16:06:30;16.80;99.90
21306;DHT22;10812;51.838;5.838;2023-05-10T16:08:58;16.70;99.90
21306;DHT22;10812;51.838;5.838;2023-05-10T16:11:27;16.70;99.90
21306;DHT22;10812;51.838;5.838;2023-05-10T16:13:55;16.80;99.90
21306;DHT22;10812;51.838;5.838;2023-05-10T16:16:24;16.80;99.90
21306;DHT22;10812;51.838;5.838;2023-05-10T16:18:53;16.80;99.90
21306;DHT22;10812;51.838;5.838;2023-05-10T16:21:21;16.90;99.90
21306;DHT22;10812;51.838;5.838;2023-05-10T16:23:49;16.70;99.90
21306;DHT22;10812;51.838;5.838;2023-05-10T16:26:17;16.80;99.90
21306;DHT22;10812;51.838;5.838;2023-05-10T16:28:45;16.70;99.90
21306;DHT22;10812;51.838;5.838;2023-05-10T16:31:14;16.60;99.90
21306;DHT22;10812;51.838;5.838;2023-05-10T16:33:45;16.50;99.90
21306;DHT22;10812;51.838;5.838;2023-05-10T16:36:13;16.50;99.90
21306;DHT22;10812;51.838;5.838;2023-05-10T16:38:41;16.60;99.90
21306;DHT22;10812;51.838;5.838;2023-05-10T16:41:09;16.50;99.90
21306;DHT22;10812;51.838;5.838;2023-05-10T16:43:37;16.30;99.90
21306;DHT22;10812;51.838;5.838;2023-05-10T16:46:09;16.30;99.90
21306;DHT22;10812;51.838;5.838;2023-05-10T16:48:38;16.20;99.90
21306;DHT22;10812;51.838;5.838;2023-05-10T16:51:07;16.20;99.90
21306;DHT22;10812;51.838;5.838;2023-05-10T16:53:36;16.30;99.90
21306;DHT22;10812;51.838;5.838;2023-05-10T16:56:04;16.20;99.90
21306;DHT22;10812;51.838;5.838;2023-05-10T16:58:33;16.10;99.90
21306;DHT22;10812;51.838;5.838;2023-05-10T17:01:01;16.10;99.90